Estación Meteorológica Peña el Pijo (Robertgarden) [ 05/25/18 12:44:36 CEST ]

Fecha Hora Presion(HPa) Temp (°C) Humedad % Rocio (°C) Viento ( m/s) Direccion Lluvia 1Hora(mm) Lluvia 24H(mm) LLuvia Total(mm)
2018-Mar-25 01:01:47 996.500 4.8 66 -1.0       3.10 179.22
2018-Mar-25 03:01:43 996.300 4.5 68 -0.9       3.10 179.22
2018-Mar-25 04:01:40 996.100 3.3 75 -0.7       2.59 179.22
2018-Mar-25 05:07:04 996.300 2.4 79 -0.9     0.51 2.07 179.74
2018-Mar-25 06:01:42 996.300 1.9 82 -0.9     0.51 1.55 180.26
2018-Mar-25 07:01:46 996.900 1.3 83 -1.3     0.51 2.07 180.78
2018-Mar-25 08:02:06 997.100 1.3 83 -1.3       2.07 180.78
2018-Mar-25 09:01:51 997.600 1.8 85 -0.5     0.51 2.59 181.30
2018-Mar-25 10:01:49 998.100 3.4 86 1.3     1.03 3.10 182.33
2018-Mar-25 11:02:10 998.500 5.3 85 2.9       3.10 182.33
2018-Mar-25 12:01:45 998.500 8.9 72 4.1 0.7 NW   3.10 182.33
2018-Mar-25 13:01:44 998.400 9.1 62 2.2       3.10 182.33
2018-Mar-25 14:01:41 998.000 9.6 59 2.0       3.10 182.33
2018-Mar-25 15:01:49 998.100 8.7 57 0.6 0.8 NNE   3.10 182.33
2018-Mar-25 16:01:53 998.200 8.6 57 0.5       3.10 182.33
2018-Mar-25 17:01:42 998.800 6.9 66 1.0       3.10 182.33
2018-Mar-25 18:01:43 999.100 6.4 66 0.5       3.10 182.33
2018-Mar-25 19:01:45 999.900 6.3 67 0.6       3.10 182.33
2018-Mar-25 20:01:42 1000.800 5.2 70 0.2       3.10 182.33
2018-Mar-25 21:01:41 1001.800 4.2 76 0.3       3.10 182.33
2018-Mar-25 22:01:38 1002.300 4.3 74 0.0       3.10 182.33
2018-Mar-25 23:01:49 1003.700 3.5 77 -0.2     0.51 3.62 182.85

Temperatura Máxima:    Temperatura Mínima:
Presión Máxima:1003.700 Hpa    Presión Mínima:996.100 Hpa


Volver